<?xml version='1.0' encoding='UTF-8'?>
<gpx xmlns="http://www.topografix.com/GPX/1/1" creator="www.balnam.be" version="1.1" xmlns:xsi="http://www.w3.org/2001/XMLSchema-instance" xsi:schemaLocation="http://www.topografix.com/GPX/1/1 http://www.topografix.com/GPX/1/1/gpx.xsd">
<trk>
<name>lstsp67</name>
<cmt>v</cmt>
<desc>Sprimont Chemin n°67 Rue Haute Lillé</desc>
<link href="https://chemins.be/sprimont/chemin/67"/><trkseg>
<trkpt lat="50.498407" lon="5.644112"><time>2026-05-02T19:28:34Z</time></trkpt>
<trkpt lat="50.499030" lon="5.643790"><time>2026-05-02T19:38:34Z</time></trkpt>
<trkpt lat="50.499987" lon="5.643500"><time>2026-05-02T19:48:34Z</time></trkpt>
</trkseg></trk>
<trk>
<name>lstsp67</name>
<cmt>r</cmt>
<desc>Sprimont Chemin n°67 Rue Haute Lillé</desc>
<link href="https://chemins.be/sprimont/chemin/67"/><trkseg>
<trkpt lat="50.499987" lon="5.643500"><time>2026-05-02T19:48:34Z</time></trkpt>
<trkpt lat="50.500750" lon="5.643095"><time>2026-05-02T19:58:34Z</time></trkpt>
</trkseg></trk>
<trk>
<name>lstsp67</name>
<cmt>v</cmt>
<desc>Sprimont Chemin n°67 Rue Haute Lillé</desc>
<link href="https://chemins.be/sprimont/chemin/67"/><trkseg>
<trkpt lat="50.500750" lon="5.643095"><time>2026-05-02T19:58:34Z</time></trkpt>
<trkpt lat="50.501338" lon="5.641940"><time>2026-05-02T20:08:34Z</time></trkpt>
<trkpt lat="50.501359" lon="5.641715"><time>2026-05-02T20:18:34Z</time></trkpt>
<trkpt lat="50.502690" lon="5.640835"><time>2026-05-02T20:28:34Z</time></trkpt>
<trkpt lat="50.503078" lon="5.640747"><time>2026-05-02T20:38:34Z</time></trkpt>
<trkpt lat="50.503656" lon="5.640494"><time>2026-05-02T20:48:34Z</time></trkpt>
<trkpt lat="50.503912" lon="5.640092"><time>2026-05-02T20:58:34Z</time></trkpt>
<trkpt lat="50.503801" lon="5.639582"><time>2026-05-02T21:08:34Z</time></trkpt>
<trkpt lat="50.503430" lon="5.638966"><time>2026-05-02T21:18:34Z</time></trkpt>
<trkpt lat="50.503460" lon="5.638698"><time>2026-05-02T21:28:34Z</time></trkpt>
<trkpt lat="50.503677" lon="5.638535"><time>2026-05-02T21:38:34Z</time></trkpt>
<trkpt lat="50.503649" lon="5.637844"><time>2026-05-02T21:48:34Z</time></trkpt>
<trkpt lat="50.503904" lon="5.636737"><time>2026-05-02T21:58:34Z</time></trkpt>
<trkpt lat="50.504425" lon="5.635905"><time>2026-05-02T22:08:34Z</time></trkpt>
<trkpt lat="50.504904" lon="5.635748"><time>2026-05-02T22:18:34Z</time></trkpt>
<trkpt lat="50.505452" lon="5.634931"><time>2026-05-02T22:28:34Z</time></trkpt>
<trkpt lat="50.505847" lon="5.634970"><time>2026-05-02T22:38:34Z</time></trkpt>
<trkpt lat="50.506773" lon="5.633782"><time>2026-05-02T22:48:34Z</time></trkpt>
<trkpt lat="50.507537" lon="5.633295"><time>2026-05-02T22:58:34Z</time></trkpt>
<trkpt lat="50.508392" lon="5.633038"><time>2026-05-02T23:08:34Z</time></trkpt>
</trkseg>
</trk>
</gpx>